sensor_id;sensor_type;location;lat;lon;timestamp;pressure;altitude;pressure_sealevel;temperature
7830;BMP180;3960;51.86894000;5.39848000;2022-07-10T00:00:13;102821.31;;;14.68
7830;BMP180;3960;51.86894000;5.39848000;2022-07-10T00:02:39;102812.34;;;14.68
7830;BMP180;3960;51.86894000;5.39848000;2022-07-10T00:05:06;102817.44;;;14.73
7830;BMP180;3960;51.86894000;5.39848000;2022-07-10T00:07:31;102819.75;;;14.71
7830;BMP180;3960;51.86894000;5.39848000;2022-07-10T00:09:57;102816.25;;;14.74
7830;BMP180;3960;51.86894000;5.39848000;2022-07-10T00:12:22;102816.25;;;14.77
7830;BMP180;3960;51.86894000;5.39848000;2022-07-10T00:14:47;102808.88;;;14.78
7830;BMP180;3960;51.86894000;5.39848000;2022-07-10T00:17:13;102801.44;;;14.75
7830;BMP180;3960;51.86894000;5.39848000;2022-07-10T00:19:38;102790.16;;;14.69
7830;BMP180;3960;51.86894000;5.39848000;2022-07-10T00:22:03;102802.59;;;14.74
7830;BMP180;3960;51.86894000;5.39848000;2022-07-10T00:24:29;102790.91;;;14.66
7830;BMP180;3960;51.86894000;5.39848000;2022-07-10T00:26:54;102789.34;;;14.65
7830;BMP180;3960;51.86894000;5.39848000;2022-07-10T00:29:20;102786.25;;;14.63
7830;BMP180;3960;51.86894000;5.39848000;2022-07-10T00:31:45;102787.00;;;14.60
7830;BMP180;3960;51.86894000;5.39848000;2022-07-10T00:34:10;102786.97;;;14.54
7830;BMP180;3960;51.86894000;5.39848000;2022-07-10T00:36:37;102781.88;;;14.45
7830;BMP180;3960;51.86894000;5.39848000;2022-07-10T00:39:02;102777.19;;;14.42
7830;BMP180;3960;51.86894000;5.39848000;2022-07-10T00:41:27;102769.00;;;14.39
7830;BMP180;3960;51.86894000;5.39848000;2022-07-10T00:43:57;102774.06;;;14.37
7830;BMP180;3960;51.86894000;5.39848000;2022-07-10T00:46:24;102784.16;;;14.36
7830;BMP180;3960;51.86894000;5.39848000;2022-07-10T00:48:50;102776.34;;;14.28
7830;BMP180;3960;51.86894000;5.39848000;2022-07-10T00:51:17;102777.09;;;14.25
7830;BMP180;3960;51.86894000;5.39848000;2022-07-10T00:53:44;102787.66;;;14.30
7830;BMP180;3960;51.86894000;5.39848000;2022-07-10T00:56:10;102764.22;;;14.15
7830;BMP180;3960;51.86894000;5.39848000;2022-07-10T00:58:37;102780.19;;;14.20
7830;BMP180;3960;51.86894000;5.39848000;2022-07-10T01:01:04;102765.38;;;14.10
7830;BMP180;3960;51.86894000;5.39848000;2022-07-10T01:03:29;102769.25;;;14.13
7830;BMP180;3960;51.86894000;5.39848000;2022-07-10T01:05:55;102773.88;;;14.05
7830;BMP180;3960;51.86894000;5.39848000;2022-07-10T01:08:20;102761.31;;;13.90
7830;BMP180;3960;51.86894000;5.39848000;2022-07-10T01:10:47;102775.00;;;13.97
7830;BMP180;3960;51.86894000;5.39848000;2022-07-10T01:13:13;102778.47;;;13.91
7830;BMP180;3960;51.86894000;5.39848000;2022-07-10T01:15:38;102779.59;;;13.86
7830;BMP180;3960;51.86894000;5.39848000;2022-07-10T01:18:03;102774.53;;;13.82
7830;BMP180;3960;51.86894000;5.39848000;2022-07-10T01:20:32;102771.75;;;13.75
7830;BMP180;3960;51.86894000;5.39848000;2022-07-10T01:22:58;102763.09;;;13.62
7830;BMP180;3960;51.86894000;5.39848000;2022-07-10T01:25:23;102769.75;;;13.68
7830;BMP180;3960;51.86894000;5.39848000;2022-07-10T01:27:50;102758.84;;;13.65
7830;BMP180;3960;51.86894000;5.39848000;2022-07-10T01:30:15;102751.03;;;13.60
7830;BMP180;3960;51.86894000;5.39848000;2022-07-10T01:32:40;102754.94;;;13.62
7830;BMP180;3960;51.86894000;5.39848000;2022-07-10T01:35:06;102771.34;;;13.73
7830;BMP180;3960;51.86894000;5.39848000;2022-07-10T01:37:33;102765.13;;;13.72
7830;BMP180;3960;51.86894000;5.39848000;2022-07-10T01:39:58;102763.13;;;13.66
7830;BMP180;3960;51.86894000;5.39848000;2022-07-10T01:42:23;102764.75;;;13.74
7830;BMP180;3960;51.86894000;5.39848000;2022-07-10T01:44:49;102773.31;;;13.76
7830;BMP180;3960;51.86894000;5.39848000;2022-07-10T01:47:14;102761.22;;;13.73
7830;BMP180;3960;51.86894000;5.39848000;2022-07-10T01:49:39;102757.38;;;13.78
7830;BMP180;3960;51.86894000;5.39848000;2022-07-10T01:52:05;102764.41;;;13.82
7830;BMP180;3960;51.86894000;5.39848000;2022-07-10T01:54:30;102754.63;;;13.78
7830;BMP180;3960;51.86894000;5.39848000;2022-07-10T01:56:55;102766.00;;;13.86
7830;BMP180;3960;51.86894000;5.39848000;2022-07-10T01:59:21;102752.38;;;13.86
7830;BMP180;3960;51.86894000;5.39848000;2022-07-10T02:01:46;102744.16;;;13.80
7830;BMP180;3960;51.86894000;5.39848000;2022-07-10T02:04:11;102750.03;;;13.85
7830;BMP180;3960;51.86894000;5.39848000;2022-07-10T02:06:55;102738.75;;;13.86
7830;BMP180;3960;51.86894000;5.39848000;2022-07-10T02:09:21;102753.59;;;13.99
7830;BMP180;3960;51.86894000;5.39848000;2022-07-10T02:11:46;102754.78;;;14.02
7830;BMP180;3960;51.86894000;5.39848000;2022-07-10T02:14:11;102764.53;;;14.06
7830;BMP180;3960;51.86894000;5.39848000;2022-07-10T02:16:36;102746.63;;;14.05
7830;BMP180;3960;51.86894000;5.39848000;2022-07-10T02:19:03;102739.25;;;14.09
7830;BMP180;3960;51.86894000;5.39848000;2022-07-10T02:21:29;102736.88;;;14.04
7830;BMP180;3960;51.86894000;5.39848000;2022-07-10T02:23:54;102748.25;;;14.10
7830;BMP180;3960;51.86894000;5.39848000;2022-07-10T02:26:19;102745.53;;;14.10
7830;BMP180;3960;51.86894000;5.39848000;2022-07-10T02:28:44;102751.38;;;14.15
7830;BMP180;3960;51.86894000;5.39848000;2022-07-10T02:31:10;102737.34;;;14.10
7830;BMP180;3960;51.86894000;5.39848000;2022-07-10T02:33:35;102717.03;;;14.00
7830;BMP180;3960;51.86894000;5.39848000;2022-07-10T02:36:02;102742.81;;;14.17
7830;BMP180;3960;51.86894000;5.39848000;2022-07-10T02:38:27;102730.78;;;14.18
7830;BMP180;3960;51.86894000;5.39848000;2022-07-10T02:40:52;102736.22;;;14.25
7830;BMP180;3960;51.86894000;5.39848000;2022-07-10T02:43:18;102726.50;;;14.24
7830;BMP180;3960;51.86894000;5.39848000;2022-07-10T02:45:43;102724.94;;;14.23
7830;BMP180;3960;51.86894000;5.39848000;2022-07-10T02:48:08;102725.31;;;14.25
7830;BMP180;3960;51.86894000;5.39848000;2022-07-10T02:50:34;102731.19;;;14.27
7830;BMP180;3960;51.86894000;5.39848000;2022-07-10T02:52:59;102726.53;;;14.27
7830;BMP180;3960;51.86894000;5.39848000;2022-07-10T02:55:24;102726.13;;;14.29
7830;BMP180;3960;51.86894000;5.39848000;2022-07-10T02:57:49;102710.50;;;14.22
7830;BMP180;3960;51.86894000;5.39848000;2022-07-10T03:00:15;102707.41;;;14.17
7830;BMP180;3960;51.86894000;5.39848000;2022-07-10T03:02:41;102735.84;;;14.26
7830;BMP180;3960;51.86894000;5.39848000;2022-07-10T03:05:06;102703.88;;;14.13
7830;BMP180;3960;51.86894000;5.39848000;2022-07-10T03:07:32;102730.78;;;14.25
7830;BMP180;3960;51.86894000;5.39848000;2022-07-10T03:09:58;102730.78;;;14.32
7830;BMP180;3960;51.86894000;5.39848000;2022-07-10T03:12:23;102736.66;;;14.34
7830;BMP180;3960;51.86894000;5.39848000;2022-07-10T03:14:48;102740.56;;;14.36
7830;BMP180;3960;51.86894000;5.39848000;2022-07-10T03:17:14;102737.81;;;14.36
7830;BMP180;3960;51.86894000;5.39848000;2022-07-10T03:19:39;102726.91;;;14.36
7830;BMP180;3960;51.86894000;5.39848000;2022-07-10T03:22:04;102725.34;;;14.32
7830;BMP180;3960;51.86894000;5.39848000;2022-07-10T03:24:30;102732.38;;;14.36
7830;BMP180;3960;51.86894000;5.39848000;2022-07-10T03:26:55;102739.00;;;14.39
7830;BMP180;3960;51.86894000;5.39848000;2022-07-10T03:29:20;102743.69;;;14.38
7830;BMP180;3960;51.86894000;5.39848000;2022-07-10T03:31:45;102735.13;;;14.40
7830;BMP180;3960;51.86894000;5.39848000;2022-07-10T03:34:11;102720.31;;;14.37
7830;BMP180;3960;51.86894000;5.39848000;2022-07-10T03:36:36;102715.25;;;14.36
7830;BMP180;3960;51.86894000;5.39848000;2022-07-10T03:39:01;102733.56;;;14.46
7830;BMP180;3960;51.86894000;5.39848000;2022-07-10T03:41:27;102725.03;;;14.47
7830;BMP180;3960;51.86894000;5.39848000;2022-07-10T03:43:52;102737.09;;;14.46
7830;BMP180;3960;51.86894000;5.39848000;2022-07-10T03:46:17;102728.13;;;14.49
7830;BMP180;3960;51.86894000;5.39848000;2022-07-10T03:48:42;102725.03;;;14.51
7830;BMP180;3960;51.86894000;5.39848000;2022-07-10T03:51:08;102706.72;;;14.48
7830;BMP180;3960;51.86894000;5.39848000;2022-07-10T03:53:33;102711.03;;;14.56
7830;BMP180;3960;51.86894000;5.39848000;2022-07-10T03:55:58;102712.59;;;14.57
7830;BMP180;3960;51.86894000;5.39848000;2022-07-10T03:58:25;102701.66;;;14.50
7830;BMP180;3960;51.86894000;5.39848000;2022-07-10T04:00:51;102708.66;;;14.57
7830;BMP180;3960;51.86894000;5.39848000;2022-07-10T04:03:16;102718.44;;;14.62
7830;BMP180;3960;51.86894000;5.39848000;2022-07-10T04:05:41;102715.69;;;14.62
7830;BMP180;3960;51.86894000;5.39848000;2022-07-10T04:08:07;102700.13;;;14.62
7830;BMP180;3960;51.86894000;5.39848000;2022-07-10T04:10:34;102702.44;;;14.60
7830;BMP180;3960;51.86894000;5.39848000;2022-07-10T04:12:59;102698.97;;;14.60
7830;BMP180;3960;51.86894000;5.39848000;2022-07-10T04:15:25;102703.63;;;14.66
7830;BMP180;3960;51.86894000;5.39848000;2022-07-10T04:17:51;102711.44;;;14.71
7830;BMP180;3960;51.86894000;5.39848000;2022-07-10T04:20:17;102725.47;;;14.77
7830;BMP180;3960;51.86894000;5.39848000;2022-07-10T04:22:43;102725.06;;;14.78
7830;BMP180;3960;51.86894000;5.39848000;2022-07-10T04:25:09;102725.09;;;14.82
7830;BMP180;3960;51.86894000;5.39848000;2022-07-10T04:27:34;102711.84;;;14.80
7830;BMP180;3960;51.86894000;5.39848000;2022-07-10T04:30:00;102707.97;;;14.88
7830;BMP180;3960;51.86894000;5.39848000;2022-07-10T04:32:26;102697.81;;;14.82
7830;BMP180;3960;51.86894000;5.39848000;2022-07-10T04:34:53;102717.72;;;14.93
7830;BMP180;3960;51.86894000;5.39848000;2022-07-10T04:37:18;102703.66;;;14.87
7830;BMP180;3960;51.86894000;5.39848000;2022-07-10T04:39:43;102720.81;;;14.98
7830;BMP180;3960;51.86894000;5.39848000;2022-07-10T04:42:09;102722.78;;;15.05
7830;BMP180;3960;51.86894000;5.39848000;2022-07-10T04:44:35;102704.84;;;14.97
7830;BMP180;3960;51.86894000;5.39848000;2022-07-10T04:47:01;102723.16;;;15.10
7830;BMP180;3960;51.86894000;5.39848000;2022-07-10T04:49:26;102719.66;;;15.13
7830;BMP180;3960;51.86894000;5.39848000;2022-07-10T04:51:52;102723.16;;;15.17
7830;BMP180;3960;51.86894000;5.39848000;2022-07-10T04:54:17;102722.03;;;15.25
7830;BMP180;3960;51.86894000;5.39848000;2022-07-10T04:56:43;102707.19;;;15.30
7830;BMP180;3960;51.86894000;5.39848000;2022-07-10T04:59:09;102697.84;;;15.27
7830;BMP180;3960;51.86894000;5.39848000;2022-07-10T05:01:35;102713.81;;;15.32
7830;BMP180;3960;51.86894000;5.39848000;2022-07-10T05:04:00;102712.25;;;15.28
7830;BMP180;3960;51.86894000;5.39848000;2022-07-10T05:06:26;102711.50;;;15.24
7830;BMP180;3960;51.86894000;5.39848000;2022-07-10T05:08:51;102718.13;;;15.30
7830;BMP180;3960;51.86894000;5.39848000;2022-07-10T05:11:16;102717.31;;;15.39
7830;BMP180;3960;51.86894000;5.39848000;2022-07-10T05:13:42;102716.53;;;15.46
7830;BMP180;3960;51.86894000;5.39848000;2022-07-10T05:16:13;102725.13;;;15.55
7830;BMP180;3960;51.86894000;5.39848000;2022-07-10T05:18:39;102730.56;;;15.58
7830;BMP180;3960;51.86894000;5.39848000;2022-07-10T05:21:05;102737.22;;;15.61
7830;BMP180;3960;51.86894000;5.39848000;2022-07-10T05:23:30;102726.28;;;15.64
7830;BMP180;3960;51.86894000;5.39848000;2022-07-10T05:25:56;102729.78;;;15.68
7830;BMP180;3960;51.86894000;5.39848000;2022-07-10T05:28:21;102729.75;;;15.79
7830;BMP180;3960;51.86894000;5.39848000;2022-07-10T05:30:46;102725.81;;;15.87
7830;BMP180;3960;51.86894000;5.39848000;2022-07-10T05:33:11;102733.19;;;16.04
7830;BMP180;3960;51.86894000;5.39848000;2022-07-10T05:35:37;102733.88;;;16.18
7830;BMP180;3960;51.86894000;5.39848000;2022-07-10T05:38:02;102731.13;;;16.35
7830;BMP180;3960;51.86894000;5.39848000;2022-07-10T05:40:27;102728.69;;;16.51
7830;BMP180;3960;51.86894000;5.39848000;2022-07-10T05:42:53;102728.59;;;16.69
7830;BMP180;3960;51.86894000;5.39848000;2022-07-10T05:45:18;102724.25;;;16.75
7830;BMP180;3960;51.86894000;5.39848000;2022-07-10T05:47:44;102729.31;;;16.80
7830;BMP180;3960;51.86894000;5.39848000;2022-07-10T05:50:10;102733.16;;;16.85
7830;BMP180;3960;51.86894000;5.39848000;2022-07-10T05:52:36;102726.13;;;16.84
7830;BMP180;3960;51.86894000;5.39848000;2022-07-10T05:55:03;102714.44;;;16.81
7830;BMP180;3960;51.86894000;5.39848000;2022-07-10T05:57:29;102726.84;;;16.92
7830;BMP180;3960;51.86894000;5.39848000;2022-07-10T05:59:55;102717.84;;;16.95
7830;BMP180;3960;51.86894000;5.39848000;2022-07-10T06:02:20;102715.84;;;16.99
7830;BMP180;3960;51.86894000;5.39848000;2022-07-10T06:04:48;102716.91;;;17.12
7830;BMP180;3960;51.86894000;5.39848000;2022-07-10T06:07:14;102704.31;;;17.21
7830;BMP180;3960;51.86894000;5.39848000;2022-07-10T06:09:40;102718.09;;;17.58
7830;BMP180;3960;51.86894000;5.39848000;2022-07-10T06:12:05;102716.16;;;17.92
7830;BMP180;3960;51.86894000;5.39848000;2022-07-10T06:14:31;102713.25;;;18.06
7830;BMP180;3960;51.86894000;5.39848000;2022-07-10T06:16:57;102726.16;;;18.05
7830;BMP180;3960;51.86894000;5.39848000;2022-07-10T06:19:22;102709.13;;;17.91
7830;BMP180;3960;51.86894000;5.39848000;2022-07-10T06:21:47;102725.53;;;17.94
7830;BMP180;3960;51.86894000;5.39848000;2022-07-10T06:24:12;102730.25;;;17.90
7830;BMP180;3960;51.86894000;5.39848000;2022-07-10T06:26:38;102725.66;;;17.84
7830;BMP180;3960;51.86894000;5.39848000;2022-07-10T06:29:03;102724.09;;;17.83
7830;BMP180;3960;51.86894000;5.39848000;2022-07-10T06:31:28;102724.09;;;17.83
7830;BMP180;3960;51.86894000;5.39848000;2022-07-10T06:33:54;102724.44;;;17.88
7830;BMP180;3960;51.86894000;5.39848000;2022-07-10T06:36:20;102719.72;;;17.89
7830;BMP180;3960;51.86894000;5.39848000;2022-07-10T06:38:45;102725.50;;;17.98
7830;BMP180;3960;51.86894000;5.39848000;2022-07-10T06:41:10;102728.22;;;17.98
7830;BMP180;3960;51.86894000;5.39848000;2022-07-10T06:43:35;102720.03;;;17.94
7830;BMP180;3960;51.86894000;5.39848000;2022-07-10T06:46:01;102722.00;;;17.94
7830;BMP180;3960;51.86894000;5.39848000;2022-07-10T06:48:27;102727.78;;;18.03
7830;BMP180;3960;51.86894000;5.39848000;2022-07-10T06:50:52;102719.22;;;17.97
7830;BMP180;3960;51.86894000;5.39848000;2022-07-10T06:53:17;102723.25;;;18.23
7830;BMP180;3960;51.86894000;5.39848000;2022-07-10T06:55:43;102720.53;;;18.49
7830;BMP180;3960;51.86894000;5.39848000;2022-07-10T06:58:08;102707.69;;;18.42
7830;BMP180;3960;51.86894000;5.39848000;2022-07-10T07:00:33;102719.72;;;18.52
7830;BMP180;3960;51.86894000;5.39848000;2022-07-10T07:02:59;102714.53;;;18.57
7830;BMP180;3960;51.86894000;5.39848000;2022-07-10T07:05:24;102726.19;;;18.65
7830;BMP180;3960;51.86894000;5.39848000;2022-07-10T07:07:49;102719.50;;;18.66
7830;BMP180;3960;51.86894000;5.39848000;2022-07-10T07:10:15;102713.50;;;18.74
7830;BMP180;3960;51.86894000;5.39848000;2022-07-10T07:12:40;102709.13;;;18.77
7830;BMP180;3960;51.86894000;5.39848000;2022-07-10T07:15:06;102725.66;;;19.00
7830;BMP180;3960;51.86894000;5.39848000;2022-07-10T07:17:32;102721.78;;;18.97
7830;BMP180;3960;51.86894000;5.39848000;2022-07-10T07:20:11;102735.19;;;18.92
7830;BMP180;3960;51.86894000;5.39848000;2022-07-10T07:22:56;102718.94;;;18.78
7830;BMP180;3960;51.86894000;5.39848000;2022-07-10T07:25:37;102726.41;;;18.77
7830;BMP180;3960;51.86894000;5.39848000;2022-07-10T07:28:05;102719.50;;;18.66
7830;BMP180;3960;51.86894000;5.39848000;2022-07-10T07:30:31;102726.91;;;18.69
7830;BMP180;3960;51.86894000;5.39848000;2022-07-10T07:32:56;102725.75;;;18.66
7830;BMP180;3960;51.86894000;5.39848000;2022-07-10T07:35:21;102723.38;;;18.68
7830;BMP180;3960;51.86894000;5.39848000;2022-07-10T07:37:50;102712.31;;;18.75
7830;BMP180;3960;51.86894000;5.39848000;2022-07-10T07:40:18;102713.22;;;18.92
7830;BMP180;3960;51.86894000;5.39848000;2022-07-10T07:42:49;102727.84;;;19.11
7830;BMP180;3960;51.86894000;5.39848000;2022-07-10T07:45:14;102716.06;;;19.11
7830;BMP180;3960;51.86894000;5.39848000;2022-07-10T07:47:48;102730.31;;;19.29
7830;BMP180;3960;51.86894000;5.39848000;2022-07-10T07:50:15;102731.06;;;19.29
7830;BMP180;3960;51.86894000;5.39848000;2022-07-10T07:52:41;102714.75;;;19.19
7830;BMP180;3960;51.86894000;5.39848000;2022-07-10T07:55:07;102720.06;;;19.29
7830;BMP180;3960;51.86894000;5.39848000;2022-07-10T07:57:32;102718.94;;;19.27
7830;BMP180;3960;51.86894000;5.39848000;2022-07-10T07:59:58;102725.94;;;19.31
7830;BMP180;3960;51.86894000;5.39848000;2022-07-10T08:02:23;102717.84;;;19.44
7830;BMP180;3960;51.86894000;5.39848000;2022-07-10T08:04:48;102708.72;;;19.50
7830;BMP180;3960;51.86894000;5.39848000;2022-07-10T08:07:14;102728.69;;;19.74
7830;BMP180;3960;51.86894000;5.39848000;2022-07-10T08:09:39;102715.69;;;19.74
7830;BMP180;3960;51.86894000;5.39848000;2022-07-10T08:12:05;102727.91;;;19.92
7830;BMP180;3960;51.86894000;5.39848000;2022-07-10T08:14:30;102713.47;;;19.88
7830;BMP180;3960;51.86894000;5.39848000;2022-07-10T08:16:55;102708.38;;;19.87
7830;BMP180;3960;51.86894000;5.39848000;2022-07-10T08:19:21;102722.84;;;20.10
7830;BMP180;3960;51.86894000;5.39848000;2022-07-10T08:21:46;102724.13;;;20.25
7830;BMP180;3960;51.86894000;5.39848000;2022-07-10T08:24:11;102724.47;;;20.27
7830;BMP180;3960;51.86894000;5.39848000;2022-07-10T08:26:36;102717.78;;;20.09
7830;BMP180;3960;51.86894000;5.39848000;2022-07-10T08:29:02;102727.44;;;19.97
7830;BMP180;3960;51.86894000;5.39848000;2022-07-10T08:31:27;102732.13;;;19.77
7830;BMP180;3960;51.86894000;5.39848000;2022-07-10T08:33:52;102729.31;;;19.62
7830;BMP180;3960;51.86894000;5.39848000;2022-07-10T08:36:18;102733.00;;;19.52
7830;BMP180;3960;51.86894000;5.39848000;2022-07-10T08:38:43;102717.13;;;19.40
7830;BMP180;3960;51.86894000;5.39848000;2022-07-10T08:41:10;102725.13;;;19.54
7830;BMP180;3960;51.86894000;5.39848000;2022-07-10T08:43:36;102724.34;;;19.53
7830;BMP180;3960;51.86894000;5.39848000;2022-07-10T08:46:02;102724.72;;;19.55
7830;BMP180;3960;51.86894000;5.39848000;2022-07-10T08:48:29;102718.69;;;19.41
7830;BMP180;3960;51.86894000;5.39848000;2022-07-10T08:51:04;102716.63;;;19.25
7830;BMP180;3960;51.86894000;5.39848000;2022-07-10T08:53:31;102725.88;;;19.35
7830;BMP180;3960;51.86894000;5.39848000;2022-07-10T08:55:57;102714.16;;;19.31
7830;BMP180;3960;51.86894000;5.39848000;2022-07-10T08:58:23;102720.59;;;19.44
7830;BMP180;3960;51.86894000;5.39848000;2022-07-10T09:00:49;102715.63;;;19.58
7830;BMP180;3960;51.86894000;5.39848000;2022-07-10T09:03:14;102712.63;;;19.72
7830;BMP180;3960;51.86894000;5.39848000;2022-07-10T09:05:40;102722.13;;;19.87
7830;BMP180;3960;51.86894000;5.39848000;2022-07-10T09:08:21;102722.31;;;19.99
7830;BMP180;3960;51.86894000;5.39848000;2022-07-10T09:10:47;102718.22;;;20.07
7830;BMP180;3960;51.86894000;5.39848000;2022-07-10T09:13:12;102704.06;;;20.25
7830;BMP180;3960;51.86894000;5.39848000;2022-07-10T09:15:38;102699.81;;;20.40
7830;BMP180;3960;51.86894000;5.39848000;2022-07-10T09:18:05;102704.00;;;20.63
7830;BMP180;3960;51.86894000;5.39848000;2022-07-10T09:20:38;102708.44;;;20.57
7830;BMP180;3960;51.86894000;5.39848000;2022-07-10T09:23:16;102707.22;;;20.43
7830;BMP180;3960;51.86894000;5.39848000;2022-07-10T09:25:43;102705.06;;;20.34
7830;BMP180;3960;51.86894000;5.39848000;2022-07-10T09:28:08;102701.72;;;20.43
7830;BMP180;3960;51.86894000;5.39848000;2022-07-10T09:30:39;102702.69;;;20.68
7830;BMP180;3960;51.86894000;5.39848000;2022-07-10T09:33:34;102709.28;;;20.90
7830;BMP180;3960;51.86894000;5.39848000;2022-07-10T09:41:28;102705.66;;;21.69
7830;BMP180;3960;51.86894000;5.39848000;2022-07-10T09:46:39;102687.03;;;21.28
7830;BMP180;3960;51.86894000;5.39848000;2022-07-10T09:49:13;102689.72;;;21.32
7830;BMP180;3960;51.86894000;5.39848000;2022-07-10T09:51:43;102682.81;;;21.40
7830;BMP180;3960;51.86894000;5.39848000;2022-07-10T09:54:09;102686.22;;;21.60
7830;BMP180;3960;51.86894000;5.39848000;2022-07-10T09:56:39;102686.31;;;21.85
7830;BMP180;3960;51.86894000;5.39848000;2022-07-10T09:59:09;102684.69;;;22.00
7830;BMP180;3960;51.86894000;5.39848000;2022-07-10T10:01:35;102670.78;;;22.03
7830;BMP180;3960;51.86894000;5.39848000;2022-07-10T10:04:02;102675.91;;;22.29
7830;BMP180;3960;51.86894000;5.39848000;2022-07-10T10:06:30;102678.25;;;22.43
7830;BMP180;3960;51.86894000;5.39848000;2022-07-10T10:09:21;102682.56;;;22.44
7830;BMP180;3960;51.86894000;5.39848000;2022-07-10T10:11:47;102684.66;;;22.53
7830;BMP180;3960;51.86894000;5.39848000;2022-07-10T10:14:15;102678.13;;;22.59
7830;BMP180;3960;51.86894000;5.39848000;2022-07-10T10:16:44;102666.50;;;22.89
7830;BMP180;3960;51.86894000;5.39848000;2022-07-10T10:19:10;102678.31;;;23.14
7830;BMP180;3960;51.86894000;5.39848000;2022-07-10T10:21:56;102672.91;;;23.11
7830;BMP180;3960;51.86894000;5.39848000;2022-07-10T10:24:23;102679.75;;;23.06
7830;BMP180;3960;51.86894000;5.39848000;2022-07-10T10:26:49;102680.06;;;22.96
7830;BMP180;3960;51.86894000;5.39848000;2022-07-10T10:29:14;102670.81;;;22.90
7830;BMP180;3960;51.86894000;5.39848000;2022-07-10T10:31:41;102672.91;;;22.86
7830;BMP180;3960;51.86894000;5.39848000;2022-07-10T10:34:07;102662.06;;;23.04
7830;BMP180;3960;51.86894000;5.39848000;2022-07-10T10:39:13;102651.91;;;22.88
7830;BMP180;3960;51.86894000;5.39848000;2022-07-10T10:46:33;102648.34;;;23.00
7830;BMP180;3960;51.86894000;5.39848000;2022-07-10T10:49:05;102668.72;;;23.28
7830;BMP180;3960;51.86894000;5.39848000;2022-07-10T10:54:25;102655.59;;;23.53
7830;BMP180;3960;51.86894000;5.39848000;2022-07-10T10:59:48;102648.19;;;23.50
7830;BMP180;3960;51.86894000;5.39848000;2022-07-10T11:02:22;102655.63;;;23.62
7830;BMP180;3960;51.86894000;5.39848000;2022-07-10T11:04:49;102650.69;;;23.57
7830;BMP180;3960;51.86894000;5.39848000;2022-07-10T11:13:07;102642.25;;;23.39
7830;BMP180;3960;51.86894000;5.39848000;2022-07-10T11:15:35;102649.84;;;23.26
7830;BMP180;3960;51.86894000;5.39848000;2022-07-10T11:18:20;102656.19;;;23.14
7830;BMP180;3960;51.86894000;5.39848000;2022-07-10T11:20:50;102657.06;;;22.99
7830;BMP180;3960;51.86894000;5.39848000;2022-07-10T11:26:06;102653.78;;;22.79
7830;BMP180;3960;51.86894000;5.39848000;2022-07-10T11:31:08;102666.88;;;22.54
7830;BMP180;3960;51.86894000;5.39848000;2022-07-10T11:33:45;102653.06;;;22.54
7830;BMP180;3960;51.86894000;5.39848000;2022-07-10T11:36:13;102653.94;;;22.63
7830;BMP180;3960;51.86894000;5.39848000;2022-07-10T11:38:39;102651.94;;;22.64
7830;BMP180;3960;51.86894000;5.39848000;2022-07-10T11:41:12;102632.28;;;22.62
7830;BMP180;3960;51.86894000;5.39848000;2022-07-10T11:43:45;102645.19;;;22.77
7830;BMP180;3960;51.86894000;5.39848000;2022-07-10T11:46:11;102634.88;;;22.90
7830;BMP180;3960;51.86894000;5.39848000;2022-07-10T11:48:40;102637.28;;;23.00
7830;BMP180;3960;51.86894000;5.39848000;2022-07-10T11:51:25;102627.31;;;23.15
7830;BMP180;3960;51.86894000;5.39848000;2022-07-10T11:54:04;102646.28;;;23.26
7830;BMP180;3960;51.86894000;5.39848000;2022-07-10T11:56:33;102629.94;;;23.19
7830;BMP180;3960;51.86894000;5.39848000;2022-07-10T11:59:03;102629.31;;;23.36
7830;BMP180;3960;51.86894000;5.39848000;2022-07-10T12:01:30;102624.72;;;23.54
7830;BMP180;3960;51.86894000;5.39848000;2022-07-10T12:04:03;102638.03;;;23.68
7830;BMP180;3960;51.86894000;5.39848000;2022-07-10T12:06:31;102630.44;;;23.60
7830;BMP180;3960;51.86894000;5.39848000;2022-07-10T12:09:03;102633.97;;;23.60
7830;BMP180;3960;51.86894000;5.39848000;2022-07-10T12:11:29;102626.69;;;23.54
7830;BMP180;3960;51.86894000;5.39848000;2022-07-10T12:14:29;102606.34;;;23.48
7830;BMP180;3960;51.86894000;5.39848000;2022-07-10T12:16:54;102634.47;;;23.68
7830;BMP180;3960;51.86894000;5.39848000;2022-07-10T12:19:22;102634.09;;;23.57
7830;BMP180;3960;51.86894000;5.39848000;2022-07-10T12:21:49;102635.19;;;23.59
7830;BMP180;3960;51.86894000;5.39848000;2022-07-10T12:24:18;102637.78;;;23.75
7830;BMP180;3960;51.86894000;5.39848000;2022-07-10T12:26:45;102626.75;;;23.84
7830;BMP180;3960;51.86894000;5.39848000;2022-07-10T12:29:29;102623.19;;;24.05
7830;BMP180;3960;51.86894000;5.39848000;2022-07-10T12:31:56;102609.81;;;24.04
7830;BMP180;3960;51.86894000;5.39848000;2022-07-10T12:34:39;102631.81;;;24.46
7830;BMP180;3960;51.86894000;5.39848000;2022-07-10T12:37:12;102619.84;;;24.58
7830;BMP180;3960;51.86894000;5.39848000;2022-07-10T12:39:49;102627.53;;;24.54
7830;BMP180;3960;51.86894000;5.39848000;2022-07-10T12:42:25;102626.16;;;24.50
7830;BMP180;3960;51.86894000;5.39848000;2022-07-10T12:44:50;102626.91;;;24.41
7830;BMP180;3960;51.86894000;5.39848000;2022-07-10T12:47:18;102628.56;;;24.39
7830;BMP180;3960;51.86894000;5.39848000;2022-07-10T12:49:55;102622.69;;;24.28
7830;BMP180;3960;51.86894000;5.39848000;2022-07-10T12:55:05;102626.28;;;24.07
7830;BMP180;3960;51.86894000;5.39848000;2022-07-10T12:57:30;102627.28;;;24.22
7830;BMP180;3960;51.86894000;5.39848000;2022-07-10T13:00:03;102626.25;;;24.37
7830;BMP180;3960;51.86894000;5.39848000;2022-07-10T13:02:30;102619.66;;;24.44
7830;BMP180;3960;51.86894000;5.39848000;2022-07-10T13:04:57;102614.44;;;24.46